sensor_id;sensor_type;location;lat;lon;timestamp;pressure;altitude;pressure_sealevel;temperature;humidity
23241;BME280;11789;53.482;9.862;2023-03-12T00:01:21;101164.91;;;-0.15;100.00
23241;BME280;11789;53.482;9.862;2023-03-12T00:03:48;101169.06;;;-0.17;100.00
23241;BME280;11789;53.482;9.862;2023-03-12T00:06:14;101164.78;;;-0.18;100.00
23241;BME280;11789;53.482;9.862;2023-03-12T00:08:40;101166.53;;;-0.17;100.00
23241;BME280;11789;53.482;9.862;2023-03-12T00:11:10;101167.25;;;-0.20;100.00
23241;BME280;11789;53.482;9.862;2023-03-12T00:13:36;101168.03;;;-0.21;100.00
23241;BME280;11789;53.482;9.862;2023-03-12T00:16:07;101166.25;;;-0.23;100.00
23241;BME280;11789;53.482;9.862;2023-03-12T00:18:33;101163.63;;;-0.25;100.00
23241;BME280;11789;53.482;9.862;2023-03-12T00:20:59;101167.16;;;-0.21;100.00
23241;BME280;11789;53.482;9.862;2023-03-12T00:23:25;101169.59;;;-0.24;100.00
23241;BME280;11789;53.482;9.862;2023-03-12T00:25:50;101169.50;;;-0.26;100.00
23241;BME280;11789;53.482;9.862;2023-03-12T00:28:16;101179.66;;;-0.26;100.00
23241;BME280;11789;53.482;9.862;2023-03-12T00:30:41;101170.88;;;-0.33;100.00
23241;BME280;11789;53.482;9.862;2023-03-12T00:33:09;101175.78;;;-0.36;100.00
23241;BME280;11789;53.482;9.862;2023-03-12T00:35:37;101182.91;;;-0.46;100.00
23241;BME280;11789;53.482;9.862;2023-03-12T00:38:02;101185.22;;;-0.51;100.00
23241;BME280;11789;53.482;9.862;2023-03-12T00:40:27;101181.69;;;-0.55;100.00
23241;BME280;11789;53.482;9.862;2023-03-12T00:42:53;101183.13;;;-0.60;100.00
23241;BME280;11789;53.482;9.862;2023-03-12T00:45:18;101182.25;;;-0.60;100.00
23241;BME280;11789;53.482;9.862;2023-03-12T00:47:44;101179.53;;;-0.63;100.00
23241;BME280;11789;53.482;9.862;2023-03-12T00:50:09;101179.53;;;-0.63;100.00
23241;BME280;11789;53.482;9.862;2023-03-12T00:52:35;101185.56;;;-0.61;100.00
23241;BME280;11789;53.482;9.862;2023-03-12T00:55:00;101187.78;;;-0.67;100.00
23241;BME280;11789;53.482;9.862;2023-03-12T00:57:26;101179.25;;;-0.69;100.00
23241;BME280;11789;53.482;9.862;2023-03-12T00:59:52;101182.72;;;-0.67;100.00
23241;BME280;11789;53.482;9.862;2023-03-12T01:02:17;101178.59;;;-0.65;100.00
23241;BME280;11789;53.482;9.862;2023-03-12T01:04:42;101180.41;;;-0.63;100.00
23241;BME280;11789;53.482;9.862;2023-03-12T01:07:08;101180.56;;;-0.60;100.00
23241;BME280;11789;53.482;9.862;2023-03-12T01:09:33;101183.00;;;-0.61;100.00
23241;BME280;11789;53.482;9.862;2023-03-12T01:11:59;101182.81;;;-0.66;100.00
23241;BME280;11789;53.482;9.862;2023-03-12T01:14:24;101180.97;;;-0.68;100.00
23241;BME280;11789;53.482;9.862;2023-03-12T01:16:50;101175.91;;;-0.68;100.00
23241;BME280;11789;53.482;9.862;2023-03-12T01:19:15;101179.87;;;-0.73;100.00
23241;BME280;11789;53.482;9.862;2023-03-12T01:21:40;101181.63;;;-0.72;100.00
23241;BME280;11789;53.482;9.862;2023-03-12T01:24:06;101182.13;;;-0.80;100.00
23241;BME280;11789;53.482;9.862;2023-03-12T01:26:32;101184.66;;;-0.80;100.00
23241;BME280;11789;53.482;9.862;2023-03-12T01:28:57;101185.69;;;-0.76;100.00
23241;BME280;11789;53.482;9.862;2023-03-12T01:31:23;101190.38;;;-0.84;100.00
23241;BME280;11789;53.482;9.862;2023-03-12T01:33:50;101190.31;;;-0.85;100.00
23241;BME280;11789;53.482;9.862;2023-03-12T01:36:19;101203.63;;;-0.89;100.00
23241;BME280;11789;53.482;9.862;2023-03-12T01:38:44;101201.25;;;-0.86;100.00
23241;BME280;11789;53.482;9.862;2023-03-12T01:41:10;101199.72;;;-0.83;100.00
23241;BME280;11789;53.482;9.862;2023-03-12T01:43:37;101197.81;;;-0.87;100.00
23241;BME280;11789;53.482;9.862;2023-03-12T01:46:21;101197.69;;;-0.90;100.00
23241;BME280;11789;53.482;9.862;2023-03-12T01:52:03;101200.53;;;-0.84;100.00
23241;BME280;11789;53.482;9.862;2023-03-12T01:56:59;101200.22;;;-0.90;100.00
23241;BME280;11789;53.482;9.862;2023-03-12T01:59:31;101197.53;;;-0.93;100.00
23241;BME280;11789;53.482;9.862;2023-03-12T02:01:58;101200.06;;;-0.93;100.00
23241;BME280;11789;53.482;9.862;2023-03-12T02:04:25;101203.22;;;-0.97;100.00
23241;BME280;11789;53.482;9.862;2023-03-12T02:07:01;101201.78;;;-0.92;100.00
23241;BME280;11789;53.482;9.862;2023-03-12T02:09:30;101205.12;;;-0.93;100.00
23241;BME280;11789;53.482;9.862;2023-03-12T02:11:56;101203.41;;;-0.94;100.00
23241;BME280;11789;53.482;9.862;2023-03-12T02:14:22;101202.59;;;-0.93;100.00
23241;BME280;11789;53.482;9.862;2023-03-12T02:16:47;101205.44;;;-0.87;100.00
23241;BME280;11789;53.482;9.862;2023-03-12T02:19:37;101204.72;;;-0.84;100.00
23241;BME280;11789;53.482;9.862;2023-03-12T02:22:06;101201.56;;;-0.80;100.00
23241;BME280;11789;53.482;9.862;2023-03-12T02:24:38;101201.66;;;-0.95;100.00
23241;BME280;11789;53.482;9.862;2023-03-12T02:27:05;101202.53;;;-0.94;100.00
23241;BME280;11789;53.482;9.862;2023-03-12T02:29:33;101193.19;;;-0.95;100.00
23241;BME280;11789;53.482;9.862;2023-03-12T02:32:00;101194.84;;;-0.96;100.00
23241;BME280;11789;53.482;9.862;2023-03-12T02:34:28;101195.72;;;-0.95;100.00
23241;BME280;11789;53.482;9.862;2023-03-12T02:36:54;101187.94;;;-0.98;100.00
23241;BME280;11789;53.482;9.862;2023-03-12T02:39:20;101194.69;;;-0.99;100.00
23241;BME280;11789;53.482;9.862;2023-03-12T02:41:50;101188.72;;;-0.99;100.00
23241;BME280;11789;53.482;9.862;2023-03-12T02:44:20;101185.47;;;-0.97;100.00
23241;BME280;11789;53.482;9.862;2023-03-12T02:46:49;101191.56;;;-0.93;100.00
23241;BME280;11789;53.482;9.862;2023-03-12T02:49:17;101185.94;;;-0.88;100.00
23241;BME280;11789;53.482;9.862;2023-03-12T02:51:44;101191.31;;;-0.82;100.00
23241;BME280;11789;53.482;9.862;2023-03-12T02:54:11;101192.50;;;-0.75;100.00
23241;BME280;11789;53.482;9.862;2023-03-12T02:56:37;101194.47;;;-0.69;100.00
23241;BME280;11789;53.482;9.862;2023-03-12T02:59:03;101197.94;;;-0.67;100.00
23241;BME280;11789;53.482;9.862;2023-03-12T03:01:29;101196.44;;;-0.64;100.00
23241;BME280;11789;53.482;9.862;2023-03-12T03:03:59;101196.69;;;-0.59;100.00
23241;BME280;11789;53.482;9.862;2023-03-12T03:06:25;101195.87;;;-0.58;100.00
23241;BME280;11789;53.482;9.862;2023-03-12T03:08:50;101195.87;;;-0.58;100.00
23241;BME280;11789;53.482;9.862;2023-03-12T03:11:16;101197.38;;;-0.62;100.00
23241;BME280;11789;53.482;9.862;2023-03-12T03:13:41;101200.66;;;-0.64;100.00
23241;BME280;11789;53.482;9.862;2023-03-12T03:16:07;101207.47;;;-0.63;100.00
23241;BME280;11789;53.482;9.862;2023-03-12T03:18:33;101198.19;;;-0.63;100.00
23241;BME280;11789;53.482;9.862;2023-03-12T03:21:05;101207.72;;;-0.59;100.00
23241;BME280;11789;53.482;9.862;2023-03-12T03:23:31;101203.19;;;-0.64;100.00
23241;BME280;11789;53.482;9.862;2023-03-12T03:25:57;101195.41;;;-0.67;100.00
23241;BME280;11789;53.482;9.862;2023-03-12T03:28:25;101189.56;;;-0.83;100.00
23241;BME280;11789;53.482;9.862;2023-03-12T03:30:52;101193.41;;;-0.91;100.00
23241;BME280;11789;53.482;9.862;2023-03-12T03:33:18;101199.34;;;-0.90;100.00
23241;BME280;11789;53.482;9.862;2023-03-12T03:35:44;101184.38;;;-0.86;100.00
23241;BME280;11789;53.482;9.862;2023-03-12T03:38:09;101191.75;;;-0.90;100.00
23241;BME280;11789;53.482;9.862;2023-03-12T03:40:35;101190.22;;;-0.87;100.00
23241;BME280;11789;53.482;9.862;2023-03-12T03:43:00;101179.91;;;-0.90;100.00
23241;BME280;11789;53.482;9.862;2023-03-12T03:45:26;101184.22;;;-1.05;100.00
23241;BME280;11789;53.482;9.862;2023-03-12T03:47:51;101190.88;;;-1.07;100.00
23241;BME280;11789;53.482;9.862;2023-03-12T03:50:17;101186.59;;;-1.08;100.00
23241;BME280;11789;53.482;9.862;2023-03-12T03:52:43;101195.38;;;-1.18;100.00
23241;BME280;11789;53.482;9.862;2023-03-12T03:55:08;101198.66;;;-1.20;100.00
23241;BME280;11789;53.482;9.862;2023-03-12T03:57:34;101190.72;;;-1.26;100.00
23241;BME280;11789;53.482;9.862;2023-03-12T03:59:59;101194.13;;;-1.26;100.00
23241;BME280;11789;53.482;9.862;2023-03-12T04:02:26;101198.78;;;-1.17;100.00
23241;BME280;11789;53.482;9.862;2023-03-12T04:04:55;101193.09;;;-1.13;100.00
23241;BME280;11789;53.482;9.862;2023-03-12T04:07:20;101199.13;;;-1.11;100.00
23241;BME280;11789;53.482;9.862;2023-03-12T04:09:46;101199.13;;;-1.11;100.00
23241;BME280;11789;53.482;9.862;2023-03-12T04:12:12;101197.06;;;-1.18;100.00
23241;BME280;11789;53.482;9.862;2023-03-12T04:14:41;101186.34;;;-1.13;100.00
23241;BME280;11789;53.482;9.862;2023-03-12T04:17:07;101197.59;;;-1.08;100.00
23241;BME280;11789;53.482;9.862;2023-03-12T04:19:32;101200.94;;;-1.09;100.00
23241;BME280;11789;53.482;9.862;2023-03-12T04:21:58;101197.72;;;-1.06;100.00
23241;BME280;11789;53.482;9.862;2023-03-12T04:24:23;101191.03;;;-1.04;100.00
23241;BME280;11789;53.482;9.862;2023-03-12T04:26:49;101193.16;;;-1.12;100.00
23241;BME280;11789;53.482;9.862;2023-03-12T04:29:17;101192.72;;;-1.21;100.00
23241;BME280;11789;53.482;9.862;2023-03-12T04:31:43;101185.66;;;-1.26;100.00
23241;BME280;11789;53.482;9.862;2023-03-12T04:34:09;101185.06;;;-1.37;100.00
23241;BME280;11789;53.482;9.862;2023-03-12T04:36:34;101182.63;;;-1.36;100.00
23241;BME280;11789;53.482;9.862;2023-03-12T04:39:00;101180.81;;;-1.38;100.00
23241;BME280;11789;53.482;9.862;2023-03-12T04:41:25;101192.63;;;-1.39;100.00
23241;BME280;11789;53.482;9.862;2023-03-12T04:43:51;101179.69;;;-1.43;100.00
23241;BME280;11789;53.482;9.862;2023-03-12T04:46:16;101183.88;;;-1.44;100.00
23241;BME280;11789;53.482;9.862;2023-03-12T04:48:42;101181.53;;;-1.41;100.00
23241;BME280;11789;53.482;9.862;2023-03-12T04:51:08;101182.47;;;-1.39;100.00
23241;BME280;11789;53.482;9.862;2023-03-12T04:53:33;101182.16;;;-1.45;100.00
23241;BME280;11789;53.482;9.862;2023-03-12T04:55:59;101179.37;;;-1.49;100.00
23241;BME280;11789;53.482;9.862;2023-03-12T04:58:24;101169.41;;;-1.46;100.00
23241;BME280;11789;53.482;9.862;2023-03-12T05:00:50;101172.25;;;-1.40;100.00
23241;BME280;11789;53.482;9.862;2023-03-12T05:03:16;101170.59;;;-1.40;100.00
23241;BME280;11789;53.482;9.862;2023-03-12T05:05:42;101175.66;;;-1.40;100.00
23241;BME280;11789;53.482;9.862;2023-03-12T05:08:07;101177.25;;;-1.42;100.00
23241;BME280;11789;53.482;9.862;2023-03-12T05:10:33;101174.84;;;-1.39;100.00
23241;BME280;11789;53.482;9.862;2023-03-12T05:12:58;101170.91;;;-1.34;100.00
23241;BME280;11789;53.482;9.862;2023-03-12T05:15:24;101170.34;;;-1.28;100.00
23241;BME280;11789;53.482;9.862;2023-03-12T05:17:50;101173.13;;;-1.23;100.00
23241;BME280;11789;53.482;9.862;2023-03-12T05:20:16;101186.78;;;-1.21;100.00
23241;BME280;11789;53.482;9.862;2023-03-12T05:22:42;101175.72;;;-1.22;100.00
23241;BME280;11789;53.482;9.862;2023-03-12T05:25:07;101184.22;;;-1.21;100.00
23241;BME280;11789;53.482;9.862;2023-03-12T05:27:34;101184.31;;;-1.20;100.00
23241;BME280;11789;53.482;9.862;2023-03-12T05:29:59;101186.03;;;-1.19;100.00
23241;BME280;11789;53.482;9.862;2023-03-12T05:32:25;101174.16;;;-1.20;100.00
23241;BME280;11789;53.482;9.862;2023-03-12T05:34:50;101174.97;;;-1.21;100.00
23241;BME280;11789;53.482;9.862;2023-03-12T05:37:16;101176.53;;;-1.23;100.00
23241;BME280;11789;53.482;9.862;2023-03-12T05:39:41;101173.69;;;-1.29;100.00
23241;BME280;11789;53.482;9.862;2023-03-12T05:42:12;101170.03;;;-1.34;100.00
23241;BME280;11789;53.482;9.862;2023-03-12T05:44:38;101168.13;;;-1.38;100.00
23241;BME280;11789;53.482;9.862;2023-03-12T05:47:04;101167.81;;;-1.44;100.00
23241;BME280;11789;53.482;9.862;2023-03-12T05:49:29;101167.12;;;-1.42;100.00
23241;BME280;11789;53.482;9.862;2023-03-12T05:51:55;101170.81;;;-1.35;100.00
23241;BME280;11789;53.482;9.862;2023-03-12T05:54:21;101163.28;;;-1.34;100.00
23241;BME280;11789;53.482;9.862;2023-03-12T05:56:47;101160.38;;;-1.25;100.00
23241;BME280;11789;53.482;9.862;2023-03-12T05:59:12;101160.75;;;-1.17;100.00
23241;BME280;11789;53.482;9.862;2023-03-12T06:01:39;101159.97;;;-1.16;100.00
23241;BME280;11789;53.482;9.862;2023-03-12T06:04:04;101163.28;;;-1.17;100.00
23241;BME280;11789;53.482;9.862;2023-03-12T06:06:31;101147.50;;;-1.12;100.00
23241;BME280;11789;53.482;9.862;2023-03-12T06:08:57;101140.91;;;-1.08;100.00
23241;BME280;11789;53.482;9.862;2023-03-12T06:11:22;101145.34;;;-1.04;100.00
23241;BME280;11789;53.482;9.862;2023-03-12T06:13:48;101140.53;;;-0.99;100.00
23241;BME280;11789;53.482;9.862;2023-03-12T06:16:19;101142.31;;;-0.97;100.00
23241;BME280;11789;53.482;9.862;2023-03-12T06:18:44;101148.19;;;-0.98;100.00
23241;BME280;11789;53.482;9.862;2023-03-12T06:21:19;101145.81;;;-0.95;100.00
23241;BME280;11789;53.482;9.862;2023-03-12T06:23:45;101141.44;;;-0.97;100.00
23241;BME280;11789;53.482;9.862;2023-03-12T06:26:11;101131.81;;;-1.05;100.00
23241;BME280;11789;53.482;9.862;2023-03-12T06:28:38;101136.81;;;-1.06;100.00
23241;BME280;11789;53.482;9.862;2023-03-12T06:31:04;101137.25;;;-0.97;100.00
23241;BME280;11789;53.482;9.862;2023-03-12T06:33:30;101136.84;;;-0.88;100.00
23241;BME280;11789;53.482;9.862;2023-03-12T06:35:58;101142.22;;;-0.82;100.00
23241;BME280;11789;53.482;9.862;2023-03-12T06:38:25;101145.72;;;-0.80;100.00
23241;BME280;11789;53.482;9.862;2023-03-12T06:41:01;101134.69;;;-0.81;100.00
23241;BME280;11789;53.482;9.862;2023-03-12T06:43:29;101138.75;;;-0.84;100.00
23241;BME280;11789;53.482;9.862;2023-03-12T06:45:56;101139.59;;;-0.84;100.00
23241;BME280;11789;53.482;9.862;2023-03-12T06:48:24;101136.50;;;-0.78;100.00
23241;BME280;11789;53.482;9.862;2023-03-12T06:50:50;101134.25;;;-0.72;100.00
23241;BME280;11789;53.482;9.862;2023-03-12T06:53:16;101128.59;;;-0.66;100.00
23241;BME280;11789;53.482;9.862;2023-03-12T06:55:43;101132.22;;;-0.61;100.00
23241;BME280;11789;53.482;9.862;2023-03-12T06:58:09;101128.25;;;-0.56;100.00
23241;BME280;11789;53.482;9.862;2023-03-12T07:00:34;101124.25;;;-0.51;100.00
23241;BME280;11789;53.482;9.862;2023-03-12T07:02:59;101116.62;;;-0.51;100.00
23241;BME280;11789;53.482;9.862;2023-03-12T07:05:26;101127.91;;;-0.46;100.00
23241;BME280;11789;53.482;9.862;2023-03-12T07:07:52;101123.91;;;-0.41;100.00
23241;BME280;11789;53.482;9.862;2023-03-12T07:10:18;101133.62;;;-0.32;100.00
23241;BME280;11789;53.482;9.862;2023-03-12T07:12:44;101133.91;;;-0.26;100.00
23241;BME280;11789;53.482;9.862;2023-03-12T07:15:10;101135.00;;;-0.21;100.00
23241;BME280;11789;53.482;9.862;2023-03-12T07:17:36;101132.69;;;-0.16;100.00
23241;BME280;11789;53.482;9.862;2023-03-12T07:20:01;101131.22;;;-0.11;100.00
23241;BME280;11789;53.482;9.862;2023-03-12T07:22:27;101130.34;;;-0.12;100.00
23241;BME280;11789;53.482;9.862;2023-03-12T07:24:52;101127.97;;;-0.09;100.00
23241;BME280;11789;53.482;9.862;2023-03-12T07:27:18;101118.16;;;-0.01;100.00
23241;BME280;11789;53.482;9.862;2023-03-12T07:29:43;101124.31;;;0.04;100.00
23241;BME280;11789;53.482;9.862;2023-03-12T07:32:10;101122.72;;;0.06;100.00
23241;BME280;11789;53.482;9.862;2023-03-12T07:34:35;101117.06;;;0.12;100.00
23241;BME280;11789;53.482;9.862;2023-03-12T07:37:01;101115.63;;;0.18;100.00
23241;BME280;11789;53.482;9.862;2023-03-12T07:39:26;101116.88;;;0.27;100.00
23241;BME280;11789;53.482;9.862;2023-03-12T07:41:52;101113.12;;;0.38;100.00
23241;BME280;11789;53.482;9.862;2023-03-12T07:44:17;101112.06;;;0.52;100.00
23241;BME280;11789;53.482;9.862;2023-03-12T07:46:43;101118.47;;;0.63;100.00
23241;BME280;11789;53.482;9.862;2023-03-12T07:49:08;101117.31;;;0.76;100.00
23241;BME280;11789;53.482;9.862;2023-03-12T07:51:34;101110.69;;;0.80;100.00
23241;BME280;11789;53.482;9.862;2023-03-12T07:54:00;101111.56;;;0.80;100.00
23241;BME280;11789;53.482;9.862;2023-03-12T07:56:25;101111.03;;;0.87;100.00
23241;BME280;11789;53.482;9.862;2023-03-12T07:58:50;101110.41;;;0.93;100.00
23241;BME280;11789;53.482;9.862;2023-03-12T08:01:16;101112.72;;;1.08;100.00
23241;BME280;11789;53.482;9.862;2023-03-12T08:03:42;101110.00;;;1.24;100.00
23241;BME280;11789;53.482;9.862;2023-03-12T08:06:07;101105.72;;;1.44;100.00
23241;BME280;11789;53.482;9.862;2023-03-12T08:08:33;101111.66;;;1.65;100.00
23241;BME280;11789;53.482;9.862;2023-03-12T08:11:00;101114.06;;;1.83;100.00
23241;BME280;11789;53.482;9.862;2023-03-12T08:13:27;101115.03;;;1.87;100.00
23241;BME280;11789;53.482;9.862;2023-03-12T08:15:53;101115.34;;;1.94;100.00
23241;BME280;11789;53.482;9.862;2023-03-12T08:18:19;101108.81;;;2.02;100.00
23241;BME280;11789;53.482;9.862;2023-03-12T08:20:49;101119.50;;;2.15;100.00
23241;BME280;11789;53.482;9.862;2023-03-12T08:23:15;101102.22;;;2.07;98.08
23241;BME280;11789;53.482;9.862;2023-03-12T08:25:44;101115.22;;;1.91;97.76
23241;BME280;11789;53.482;9.862;2023-03-12T08:28:09;101105.28;;;1.76;97.42
23241;BME280;11789;53.482;9.862;2023-03-12T08:30:35;101100.59;;;1.65;98.08
23241;BME280;11789;53.482;9.862;2023-03-12T08:33:00;101100.38;;;1.59;98.89
23241;BME280;11789;53.482;9.862;2023-03-12T08:35:25;101098.63;;;1.58;98.39
23241;BME280;11789;53.482;9.862;2023-03-12T08:37:51;101098.63;;;1.58;98.72
23241;BME280;11789;53.482;9.862;2023-03-12T08:40:16;101100.22;;;1.55;97.68
23241;BME280;11789;53.482;9.862;2023-03-12T08:42:43;101102.91;;;1.59;97.89
23241;BME280;11789;53.482;9.862;2023-03-12T08:45:10;101097.00;;;1.60;97.01
23241;BME280;11789;53.482;9.862;2023-03-12T08:47:36;101099.72;;;1.64;96.64
23241;BME280;11789;53.482;9.862;2023-03-12T08:50:04;101105.19;;;1.73;96.34
23241;BME280;11789;53.482;9.862;2023-03-12T08:52:30;101104.59;;;1.80;96.05
23241;BME280;11789;53.482;9.862;2023-03-12T08:54:55;101097.00;;;1.82;94.66
23241;BME280;11789;53.482;9.862;2023-03-12T08:57:21;101093.59;;;1.81;93.40
23241;BME280;11789;53.482;9.862;2023-03-12T08:59:46;101097.78;;;1.79;91.12
23241;BME280;11789;53.482;9.862;2023-03-12T09:02:12;101087.63;;;1.81;90.44
23241;BME280;11789;53.482;9.862;2023-03-12T09:04:38;101081.03;;;1.86;91.87
23241;BME280;11789;53.482;9.862;2023-03-12T09:07:03;101092.22;;;1.90;91.98
23241;BME280;11789;53.482;9.862;2023-03-12T09:09:29;101086.12;;;1.86;89.31
23241;BME280;11789;53.482;9.862;2023-03-12T09:11:54;101080.84;;;1.81;86.75
23241;BME280;11789;53.482;9.862;2023-03-12T09:14:20;101071.47;;;1.80;86.69
23241;BME280;11789;53.482;9.862;2023-03-12T09:16:45;101064.63;;;1.79;86.47
23241;BME280;11789;53.482;9.862;2023-03-12T09:19:11;101058.62;;;1.77;86.74
23241;BME280;11789;53.482;9.862;2023-03-12T09:21:36;101066.28;;;1.77;86.22
23241;BME280;11789;53.482;9.862;2023-03-12T09:24:02;101054.44;;;1.79;86.75
23241;BME280;11789;53.482;9.862;2023-03-12T09:26:28;101054.56;;;1.83;86.51
23241;BME280;11789;53.482;9.862;2023-03-12T09:28:53;101046.16;;;1.85;87.09
23241;BME280;11789;53.482;9.862;2023-03-12T09:31:18;101045.47;;;1.89;86.23
23241;BME280;11789;53.482;9.862;2023-03-12T09:33:44;101040.53;;;1.94;85.33
23241;BME280;11789;53.482;9.862;2023-03-12T09:36:09;101028.00;;;2.00;85.02
23241;BME280;11789;53.482;9.862;2023-03-12T09:38:35;101043.13;;;1.95;83.01
23241;BME280;11789;53.482;9.862;2023-03-12T09:41:04;101036.94;;;1.89;84.17
23241;BME280;11789;53.482;9.862;2023-03-12T09:43:37;101027.44;;;1.85;83.71
23241;BME280;11789;53.482;9.862;2023-03-12T09:46:11;101003.72;;;1.87;83.11
23241;BME280;11789;53.482;9.862;2023-03-12T09:48:39;101011.78;;;1.98;81.40
23241;BME280;11789;53.482;9.862;2023-03-12T09:53:51;100997.03;;;2.13;81.13
23241;BME280;11789;53.482;9.862;2023-03-12T09:56:19;101010.09;;;2.22;80.27
23241;BME280;11789;53.482;9.862;2023-03-12T09:58:46;101005.12;;;2.25;78.90
23241;BME280;11789;53.482;9.862;2023-03-12T10:01:33;100997.62;;;2.30;78.65
23241;BME280;11789;53.482;9.862;2023-03-12T10:17:09;100935.84;;;2.64;76.65
23241;BME280;11789;53.482;9.862;2023-03-12T10:27:58;100902.06;;;3.00;76.93
23241;BME280;11789;53.482;9.862;2023-03-12T10:30:29;100896.84;;;2.97;73.36
23241;BME280;11789;53.482;9.862;2023-03-12T10:32:59;100896.69;;;2.91;74.24
23241;BME280;11789;53.482;9.862;2023-03-12T10:35:27;100882.94;;;2.87;74.33
23241;BME280;11789;53.482;9.862;2023-03-12T10:37:58;100887.28;;;2.90;74.57
23241;BME280;11789;53.482;9.862;2023-03-12T10:40:33;100883.91;;;2.91;74.61
23241;BME280;11789;53.482;9.862;2023-03-12T10:43:00;100873.44;;;2.83;73.93
23241;BME280;11789;53.482;9.862;2023-03-12T10:45:33;100870.97;;;2.84;75.16
23241;BME280;11789;53.482;9.862;2023-03-12T10:48:06;100876.06;;;2.84;74.66
23241;BME280;11789;53.482;9.862;2023-03-12T10:50:38;100864.91;;;2.82;74.00
23241;BME280;11789;53.482;9.862;2023-03-12T10:53:23;100865.16;;;2.90;74.89
23241;BME280;11789;53.482;9.862;2023-03-12T10:56:16;100856.09;;;3.00;74.99
23241;BME280;11789;53.482;9.862;2023-03-12T10:58:45;100856.91;;;2.99;73.14
23241;BME280;11789;53.482;9.862;2023-03-12T11:01:23;100862.81;;;2.98;72.43
23241;BME280;11789;53.482;9.862;2023-03-12T11:03:50;100846.69;;;2.99;71.78
23241;BME280;11789;53.482;9.862;2023-03-12T11:06:28;100839.91;;;2.99;70.87
23241;BME280;11789;53.482;9.862;2023-03-12T11:09:26;100844.09;;;2.97;70.19
23241;BME280;11789;53.482;9.862;2023-03-12T11:11:52;100822.97;;;3.03;70.55
23241;BME280;11789;53.482;9.862;2023-03-12T11:14:23;100812.87;;;3.07;70.06
23241;BME280;11789;53.482;9.862;2023-03-12T11:16:50;100823.22;;;3.10;68.64
23241;BME280;11789;53.482;9.862;2023-03-12T11:19:33;100820.53;;;3.06;67.75
23241;BME280;11789;53.482;9.862;2023-03-12T11:22:07;100838.28;;;3.03;69.55
23241;BME280;11789;53.482;9.862;2023-03-12T11:24:53;100837.41;;;3.01;68.77
23241;BME280;11789;53.482;9.862;2023-03-12T11:27:29;100842.50;;;3.01;68.94
23241;BME280;11789;53.482;9.862;2023-03-12T11:29:57;100837.28;;;2.98;69.43
23241;BME280;11789;53.482;9.862;2023-03-12T11:32:41;100839.81;;;2.96;68.84
23241;BME280;11789;53.482;9.862;2023-03-12T11:35:10;100840.78;;;3.00;69.53
23241;BME280;11789;53.482;9.862;2023-03-12T11:42:51;100823.13;;;3.09;69.16
23241;BME280;11789;53.482;9.862;2023-03-12T11:56:37;100841.16;;;3.13;70.05
23241;BME280;11789;53.482;9.862;2023-03-12T12:07:11;100823.97;;;3.08;70.16
23241;BME280;11789;53.482;9.862;2023-03-12T12:09:43;100819.66;;;3.05;70.64
23241;BME280;11789;53.482;9.862;2023-03-12T12:15:05;100823.06;;;3.06;70.41
23241;BME280;11789;53.482;9.862;2023-03-12T12:20:35;100814.38;;;2.99;72.90
23241;BME280;11789;53.482;9.862;2023-03-12T12:25:48;100815.12;;;2.97;75.04
23241;BME280;11789;53.482;9.862;2023-03-12T12:34:13;100800.47;;;2.90;75.30
23241;BME280;11789;53.482;9.862;2023-03-12T12:36:45;100797.09;;;2.91;74.91
23241;BME280;11789;53.482;9.862;2023-03-12T12:41:54;100789.34;;;2.87;75.27
23241;BME280;11789;53.482;9.862;2023-03-12T12:44:43;100783.41;;;2.89;75.47
23241;BME280;11789;53.482;9.862;2023-03-12T12:47:17;100782.59;;;2.90;75.79
23241;BME280;11789;53.482;9.862;2023-03-12T12:49:53;100790.19;;;2.88;76.34
23241;BME280;11789;53.482;9.862;2023-03-12T12:52:21;100780.59;;;2.79;78.76
23241;BME280;11789;53.482;9.862;2023-03-12T12:55:11;100774.34;;;2.70;80.07
23241;BME280;11789;53.482;9.862;2023-03-12T12:57:53;100759.53;;;2.58;81.79
23241;BME280;11789;53.482;9.862;2023-03-12T13:02:55;100756.97;;;2.29;86.32
23241;BME280;11789;53.482;9.862;2023-03-12T13:05:27;100745.66;;;2.21;87.89
23241;BME280;11789;53.482;9.862;2023-03-12T13:07:53;100749.03;;;2.20;89.86
23241;BME280;11789;53.482;9.862;2023-03-12T13:12:56;100755.72;;;2.17;92.59
23241;BME280;11789;53.482;9.862;2023-03-12T13:20:46;100742.88;;;2.14;96.09
23241;BME280;11789;53.482;9.862;2023-03-12T13:33:56;100714.06;;;1.89;100.00
23241;BME280;11789;53.482;9.862;2023-03-12T13:36:26;100720.91;;;1.92;100.00
23241;BME280;11789;53.482;9.862;2023-03-12T13:38:59;100710.38;;;1.81;100.00
23241;BME280;11789;53.482;9.862;2023-03-12T13:41:49;100709.34;;;1.74;100.00
23241;BME280;11789;53.482;9.862;2023-03-12T13:47:01;100710.19;;;1.75;100.00
23241;BME280;11789;53.482;9.862;2023-03-12T13:49:45;100711.94;;;1.76;100.00
23241;BME280;11789;53.482;9.862;2023-03-12T13:52:49;100716.88;;;1.71;100.00
23241;BME280;11789;53.482;9.862;2023-03-12T13:55:26;100708.84;;;1.59;100.00
23241;BME280;11789;53.482;9.862;2023-03-12T13:57:56;100707.13;;;1.58;100.00
23241;BME280;11789;53.482;9.862;2023-03-12T14:02:56;100699.25;;;1.52;100.00
23241;BME280;11789;53.482;9.862;2023-03-12T14:05:23;100696.47;;;1.44;100.00
23241;BME280;11789;53.482;9.862;2023-03-12T14:10:43;100695.56;;;1.42;100.00
23241;BME280;11789;53.482;9.862;2023-03-12T14:16:15;100672.56;;;1.41;100.00
23241;BME280;11789;53.482;9.862;2023-03-12T14:18:45;100666.56;;;1.39;100.00
23241;BME280;11789;53.482;9.862;2023-03-12T14:21:14;100663.91;;;1.36;100.00
23241;BME280;11789;53.482;9.862;2023-03-12T14:23:55;100664.06;;;1.40;100.00
23241;BME280;11789;53.482;9.862;2023-03-12T14:26:31;100653.72;;;1.36;100.00
23241;BME280;11789;53.482;9.862;2023-03-12T14:29:07;100647.72;;;1.34;100.00
23241;BME280;11789;53.482;9.862;2023-03-12T14:31:34;100653.63;;;1.33;100.00
23241;BME280;11789;53.482;9.862;2023-03-12T14:34:15;100655.16;;;1.27;100.00
23241;BME280;11789;53.482;9.862;2023-03-12T14:44:59;100652.53;;;1.26;100.00